Time;durP1;ratioP1;P1;durP2;ratioP2;P2;SDS_P1;SDS_P2;PMS_P1;PMS_P2;Temp;Humidity;BMP_temperature;BMP_pressure;BME280_temperature;BME280_humidity;BME280_pressure;Samples;Min_cycle;Max_cycle;Signal;HPM_P1;HPM_P2
2022/03/31 00:01:15;;;;;;;25.27;17.95;;;;;;;10.74;100.00;94531.56;5047977;28;20072;-65
2022/03/31 00:03:43;;;;;;;29.42;18.65;;;;;;;10.62;100.00;94531.25;5047277;28;20072;-65
2022/03/31 00:06:12;;;;;;;24.38;17.17;;;;;;;10.75;100.00;94530.53;5046860;28;20087;-65
2022/03/31 00:08:40;;;;;;;24.83;16.52;;;;;;;10.60;100.00;94526.19;5047436;28;20076;-66
2022/03/31 00:11:08;;;;;;;26.10;18.10;;;;;;;10.62;100.00;94531.25;5047374;28;20103;-65
2022/03/31 00:13:38;;;;;;;32.35;20.70;;;;;;;10.57;100.00;94534.47;5046761;28;20065;-65
2022/03/31 00:16:06;;;;;;;29.75;19.05;;;;;;;10.33;100.00;94532.25;5047752;28;20079;-65
2022/03/31 00:18:34;;;;;;;29.20;19.83;;;;;;;10.30;100.00;94537.91;5046792;28;20057;-65
2022/03/31 00:21:02;;;;;;;33.95;21.50;;;;;;;10.35;100.00;94532.88;5047334;28;20091;-65
2022/03/31 00:23:31;;;;;;;34.03;22.45;;;;;;;10.59;100.00;94529.00;5047992;28;20519;-65
2022/03/31 00:26:00;;;;;;;34.80;21.58;;;;;;;10.59;100.00;94531.63;5047161;28;20075;-65
2022/03/31 00:28:28;;;;;;;34.17;20.35;;;;;;;10.21;100.00;94527.47;5047477;28;20060;-62
2022/03/31 00:30:58;;;;;;;34.03;21.05;;;;;;;10.36;100.00;94522.16;5046702;28;20087;-66
2022/03/31 00:33:26;;;;;;;32.83;22.20;;;;;;;10.50;100.00;94517.81;5047622;28;20068;-64
2022/03/31 00:35:54;;;;;;;34.53;22.73;;;;;;;10.68;100.00;94514.66;5047620;28;20088;-64
2022/03/31 00:38:23;;;;;;;37.13;23.08;;;;;;;10.63;100.00;94511.78;5046848;28;20080;-64
2022/03/31 00:40:51;;;;;;;35.40;22.83;;;;;;;10.60;100.00;94512.19;5046406;28;20066;-64
2022/03/31 00:43:19;;;;;;;39.38;23.50;;;;;;;10.77;100.00;94502.97;5047214;28;20060;-64
2022/03/31 00:45:48;;;;;;;37.55;23.95;;;;;;;10.66;100.00;94508.75;5042815;28;20076;-64
2022/03/31 00:48:19;;;;;;;41.60;25.50;;;;;;;10.76;100.00;94497.88;5045931;28;20080;-63
2022/03/31 00:50:48;;;;;;;40.97;26.17;;;;;;;10.81;100.00;94498.13;5046260;28;20080;-64
2022/03/31 00:53:17;;;;;;;44.97;26.50;;;;;;;10.83;100.00;94502.19;5047050;28;20080;-66
2022/03/31 00:56:02;;;;;;;41.80;26.20;;;;;;;10.88;100.00;94497.16;5046777;28;20476;-66
2022/03/31 00:58:31;;;;;;;40.50;26.17;;;;;;;11.06;100.00;94480.81;5045519;28;20083;-64
2022/03/31 01:00:59;;;;;;;42.20;25.83;;;;;;;10.51;100.00;94487.81;5045918;28;20061;-65
2022/03/31 01:03:32;;;;;;;41.65;26.92;;;;;;;10.65;100.00;94484.25;5045455;28;20080;-66
2022/03/31 01:06:00;;;;;;;39.97;27.40;;;;;;;10.35;100.00;94482.81;5046078;28;20092;-64
2022/03/31 01:08:28;;;;;;;41.00;26.40;;;;;;;10.86;100.00;94474.63;5047208;28;20476;-65
2022/03/31 01:10:57;;;;;;;42.63;27.70;;;;;;;10.67;100.00;94470.88;5046167;28;20076;-65
2022/03/31 01:13:25;;;;;;;41.28;26.27;;;;;;;10.71;100.00;94472.13;5046908;28;20064;-64
2022/03/31 01:15:54;;;;;;;43.50;27.13;;;;;;;10.38;100.00;94470.06;5045731;28;20095;-66
2022/03/31 01:18:22;;;;;;;43.72;26.63;;;;;;;10.56;100.00;94464.31;5046669;28;20080;-65
2022/03/31 01:20:52;;;;;;;40.30;26.48;;;;;;;10.60;100.00;94459.50;5061865;28;20076;-65
2022/03/31 01:23:22;;;;;;;42.63;27.58;;;;;;;10.51;100.00;94452.72;5046891;28;20076;-65
2022/03/31 01:25:51;;;;;;;43.30;27.33;;;;;;;10.81;100.00;94445.41;5044878;28;20499;-64
2022/03/31 01:28:20;;;;;;;41.95;26.48;;;;;;;11.02;100.00;94445.28;5046705;28;20056;-64
2022/03/31 01:30:48;;;;;;;39.47;25.40;;;;;;;10.99;100.00;94435.13;5045897;28;20458;-65
2022/03/31 01:33:16;;;;;;;39.20;25.38;;;;;;;10.53;100.00;94432.25;5045510;28;20083;-65
2022/03/31 01:35:45;;;;;;;38.42;25.80;;;;;;;10.69;100.00;94437.22;5044997;28;20079;-65
2022/03/31 01:38:13;;;;;;;38.38;24.70;;;;;;;10.68;100.00;94432.97;5045056;28;20088;-65
2022/03/31 01:40:43;;;;;;;42.67;25.88;;;;;;;10.32;100.00;94435.78;5044236;28;20462;-65
2022/03/31 01:43:13;;;;;;;40.80;24.75;;;;;;;10.12;100.00;94440.91;5046529;28;20135;-64
2022/03/31 01:45:41;;;;;;;42.42;26.77;;;;;;;9.72;100.00;94430.03;5043532;28;20072;-65
2022/03/31 01:48:10;;;;;;;47.17;28.15;;;;;;;9.82;100.00;94437.63;5044746;28;20091;-65
2022/03/31 01:50:39;;;;;;;48.58;28.95;;;;;;;9.77;100.00;94434.72;5046522;28;20091;-65
2022/03/31 01:53:07;;;;;;;49.20;29.55;;;;;;;9.84;100.00;94431.16;5045132;28;20084;-64
2022/03/31 01:55:36;;;;;;;50.38;29.70;;;;;;;9.97;100.00;94433.06;5045480;28;20064;-66
2022/03/31 01:58:06;;;;;;;50.63;30.02;;;;;;;10.12;100.00;94433.00;5060380;28;20083;-65
2022/03/31 02:00:35;;;;;;;51.42;30.45;;;;;;;9.89;100.00;94431.41;5043032;28;20071;-64
2022/03/31 02:03:04;;;;;;;52.67;30.23;;;;;;;9.95;100.00;94430.63;5044956;28;20076;-65
2022/03/31 02:05:32;;;;;;;50.17;29.58;;;;;;;10.02;100.00;94417.53;5044927;28;20080;-65
2022/03/31 02:08:02;;;;;;;48.67;28.75;;;;;;;9.72;100.00;94417.69;5046193;28;20542;-65
2022/03/31 02:10:30;;;;;;;52.35;30.65;;;;;;;9.51;100.00;94412.44;5054177;28;20072;-65
2022/03/31 02:12:58;;;;;;;50.35;29.63;;;;;;;9.39;100.00;94411.31;5043116;28;20432;-64
2022/03/31 02:15:29;;;;;;;49.53;29.05;;;;;;;9.87;100.00;94417.59;5046281;28;20458;-65
2022/03/31 02:17:57;;;;;;;;;;;;;;;9.83;100.00;94408.47;5045464;28;20037;-64
2022/03/31 02:20:27;;;;;;;49.78;29.38;;;;;;;9.90;100.00;94411.94;5023149;28;20569;-64
2022/03/31 02:22:55;;;;;;;52.67;30.57;;;;;;;9.93;100.00;94408.13;5039062;28;20733;-64
2022/03/31 02:25:23;;;;;;;48.42;27.55;;;;;;;9.87;100.00;94398.34;5047833;28;20495;-65
2022/03/31 02:27:52;;;;;;;48.63;29.30;;;;;;;9.94;100.00;94399.22;5043605;28;20064;-66
2022/03/31 02:30:21;;;;;;;50.95;29.10;;;;;;;10.03;100.00;94400.72;5048395;28;20069;-65
2022/03/31 02:32:51;;;;;;;49.17;29.50;;;;;;;10.21;100.00;94390.50;5049369;28;20077;-65
2022/03/31 02:35:20;;;;;;;50.72;30.02;;;;;;;10.27;100.00;94398.69;5048869;28;20068;-65
2022/03/31 02:37:48;;;;;;;48.17;29.02;;;;;;;10.39;100.00;94386.56;5047150;28;20065;-64
2022/03/31 02:40:16;;;;;;;52.50;30.17;;;;;;;10.58;100.00;94387.69;5047738;28;20072;-63
2022/03/31 02:42:44;;;;;;;51.53;30.05;;;;;;;10.61;100.00;94377.59;5047012;28;20463;-63
2022/03/31 02:45:13;;;;;;;50.38;29.77;;;;;;;10.54;100.00;94371.47;5046341;28;20612;-64
2022/03/31 02:47:44;;;;;;;49.45;29.15;;;;;;;10.49;100.00;94370.41;5047928;28;20476;-64
2022/03/31 02:50:15;;;;;;;47.33;29.55;;;;;;;10.42;100.00;94371.19;5046442;28;20065;-65
2022/03/31 02:55:29;;;;;;;45.97;27.45;;;;;;;10.40;100.00;94361.88;5048694;28;20321;-64
2022/03/31 02:58:00;;;;;;;54.65;29.08;;;;;;;10.37;100.00;94362.25;5047274;28;20523;-62
2022/03/31 03:00:30;;;;;;;47.78;27.73;;;;;;;10.20;100.00;94351.19;5045499;28;20554;-63
2022/03/31 03:02:59;;;;;;;46.58;27.88;;;;;;;10.17;100.00;94352.38;5046520;28;20084;-64
2022/03/31 03:05:29;;;;;;;46.67;28.65;;;;;;;10.02;100.00;94361.44;5047227;28;20081;-64
2022/03/31 03:07:57;;;;;;;47.53;28.60;;;;;;;10.18;100.00;94359.28;5047891;28;20063;-63
2022/03/31 03:10:26;;;;;;;48.22;29.20;;;;;;;10.37;100.00;94352.53;5047989;28;20077;-65
2022/03/31 03:12:56;;;;;;;47.83;29.27;;;;;;;10.44;100.00;94355.19;5047705;28;20065;-65
2022/03/31 03:15:24;;;;;;;52.45;30.63;;;;;;;10.51;100.00;94347.34;5046614;28;20482;-63
2022/03/31 03:17:53;;;;;;;51.67;30.15;;;;;;;10.22;100.00;94355.28;5047650;28;20123;-62
2022/03/31 03:20:24;;;;;;;48.85;30.00;;;;;;;10.48;100.00;94348.53;5046193;28;20057;-62
2022/03/31 03:22:54;;;;;;;50.95;30.30;;;;;;;10.13;100.00;94347.72;5048011;28;20064;-64
2022/03/31 03:25:23;;;;;;;49.08;29.60;;;;;;;10.42;100.00;94342.22;5046185;28;20068;-63
2022/03/31 03:27:52;;;;;;;45.75;28.75;;;;;;;10.61;100.00;94335.41;5044785;28;20456;-64
2022/03/31 03:30:22;;;;;;;51.15;30.80;;;;;;;10.67;100.00;94345.19;5046936;28;20068;-63
2022/03/31 03:32:50;;;;;;;54.20;30.98;;;;;;;10.20;100.00;94345.94;5045304;28;20151;-63
2022/03/31 03:35:19;;;;;;;54.05;30.65;;;;;;;10.63;100.00;94346.59;5044617;28;20079;-63
2022/03/31 03:37:47;;;;;;;53.45;30.88;;;;;;;10.74;100.00;94341.75;5047109;28;20064;-64
2022/03/31 03:40:17;;;;;;;52.88;31.23;;;;;;;10.40;100.00;94348.72;5046768;28;20479;-64
2022/03/31 03:42:46;;;;;;;52.17;30.58;;;;;;;10.12;100.00;94354.81;5049130;28;20043;-65
2022/03/31 03:45:14;;;;;;;51.10;31.00;;;;;;;10.59;100.00;94345.31;5048013;28;20464;-64
2022/03/31 03:47:43;;;;;;;53.47;29.38;;;;;;;10.63;100.00;94343.94;5046002;28;20464;-64
2022/03/31 03:50:12;;;;;;;55.80;31.27;;;;;;;10.35;100.00;94345.81;5043450;28;20525;-64
2022/03/31 03:52:40;;;;;;;56.97;31.90;;;;;;;10.51;100.00;94339.44;5043270;28;20072;-66
2022/03/31 03:55:09;;;;;;;52.35;30.75;;;;;;;10.36;100.00;94336.94;5043190;28;20069;-64
2022/03/31 03:57:39;;;;;;;51.17;29.55;;;;;;;10.18;100.00;94338.22;5043324;28;20068;-63
2022/03/31 04:00:09;;;;;;;51.08;30.05;;;;;;;9.85;100.00;94334.59;5044548;28;20084;-63
2022/03/31 04:02:39;;;;;;;53.10;29.83;;;;;;;10.29;100.00;94336.91;5049431;28;20081;-65
2022/03/31 04:05:08;;;;;;;57.23;31.43;;;;;;;10.26;100.00;94331.22;5049935;28;20546;-65
2022/03/31 04:07:37;;;;;;;56.75;30.95;;;;;;;10.44;100.00;94328.84;5050225;28;20065;-65
2022/03/31 04:10:08;;;;;;;54.42;30.88;;;;;;;10.47;100.00;94322.38;5050269;28;20065;-65
2022/03/31 04:12:37;;;;;;;57.17;31.30;;;;;;;10.54;100.00;94324.03;5049173;28;20061;-64
2022/03/31 04:15:08;;;;;;;55.95;31.45;;;;;;;10.53;100.00;94332.97;5049902;28;20088;-64
2022/03/31 04:17:37;;;;;;;57.95;31.80;;;;;;;10.43;100.00;94329.88;5057271;28;20055;-64
2022/03/31 04:20:24;;;;;;;59.33;31.20;;;;;;;10.21;100.00;94323.84;5044201;28;20195;-65
2022/03/31 04:22:52;;;;;;;59.42;31.27;;;;;;;9.94;100.00;94325.50;5065428;28;20460;-65
2022/03/31 04:25:21;;;;;;;57.88;32.25;;;;;;;10.06;100.00;94331.06;5048760;28;20076;-64
2022/03/31 04:27:50;;;;;;;55.28;31.27;;;;;;;10.11;100.00;94331.28;5050461;28;20033;-65
2022/03/31 04:30:21;;;;;;;55.95;30.83;;;;;;;10.10;100.00;94329.66;5048266;28;20076;-63
2022/03/31 04:32:51;;;;;;;57.90;30.77;;;;;;;10.13;100.00;94334.56;5049229;28;20064;-64
2022/03/31 04:35:19;;;;;;;56.22;31.23;;;;;;;10.05;100.00;94319.72;5049339;28;20060;-64
2022/03/31 04:37:48;;;;;;;56.08;29.70;;;;;;;9.69;100.00;94325.97;5058290;28;20073;-65
2022/03/31 04:40:16;;;;;;;53.58;30.40;;;;;;;10.20;100.00;94319.59;5049569;28;20061;-65
2022/03/31 04:42:46;;;;;;;54.28;30.48;;;;;;;10.25;100.00;94324.28;5064795;28;20530;-65
2022/03/31 04:45:14;;;;;;;55.38;30.92;;;;;;;10.47;100.00;94315.28;5046833;28;20049;-63
2022/03/31 04:47:44;;;;;;;56.25;30.25;;;;;;;10.40;100.00;94317.91;5050335;28;20073;-64
2022/03/31 04:50:13;;;;;;;56.80;31.48;;;;;;;10.53;100.00;94314.50;5064839;28;20060;-65
2022/03/31 04:52:41;;;;;;;57.33;31.23;;;;;;;10.42;100.00;94312.41;5046399;28;20589;-63
2022/03/31 04:55:10;;;;;;;57.95;32.80;;;;;;;10.28;100.00;94310.75;5047549;28;20068;-64
2022/03/31 04:57:39;;;;;;;55.20;31.80;;;;;;;10.54;100.00;94310.06;5049458;28;20068;-62
2022/03/31 05:00:08;;;;;;;53.65;31.02;;;;;;;9.80;100.00;94311.44;5049136;28;20087;-63
2022/03/31 05:02:36;;;;;;;55.55;31.73;;;;;;;10.10;100.00;94311.22;5049695;28;20095;-64
2022/03/31 05:05:07;;;;;;;58.40;32.63;;;;;;;9.56;100.00;94317.16;5048762;28;20087;-62
2022/03/31 05:07:35;;;;;;;;;;;;;;;10.18;100.00;94313.69;5050190;28;20095;-64
2022/03/31 05:10:22;;;;;;;58.30;32.03;;;;;;;9.97;100.00;94314.59;5049030;28;20486;-64
2022/03/31 05:12:50;;;;;;;54.92;32.10;;;;;;;9.88;100.00;94305.25;5049065;28;20073;-64
2022/03/31 05:15:19;;;;;;;55.58;31.52;;;;;;;9.77;100.00;94318.91;5049204;28;20080;-64
2022/03/31 05:17:47;;;;;;;58.38;31.73;;;;;;;10.11;100.00;94315.47;5054783;28;20091;-62
2022/03/31 05:20:17;;;;;;;54.22;30.75;;;;;;;10.33;100.00;94321.53;5048542;28;20080;-63
2022/03/31 05:22:45;;;;;;;58.20;32.78;;;;;;;10.04;100.00;94314.63;5042823;28;20085;-63
2022/03/31 05:25:13;;;;;;;54.03;31.55;;;;;;;10.56;100.00;94323.81;5048489;28;20064;-63
2022/03/31 05:27:43;;;;;;;58.90;33.30;;;;;;;10.73;100.00;94321.66;5049290;28;20057;-63
2022/03/31 05:30:12;;;;;;;59.60;32.53;;;;;;;10.66;100.00;94322.44;5048127;28;20083;-64
2022/03/31 05:32:41;;;;;;;52.85;30.75;;;;;;;10.74;100.00;94321.47;5043756;28;20088;-63
2022/03/31 05:35:11;;;;;;;59.78;31.08;;;;;;;10.14;100.00;94321.16;5047027;28;20478;-62
2022/03/31 05:37:41;;;;;;;56.80;31.30;;;;;;;9.88;100.00;94323.66;5048689;28;20071;-62
2022/03/31 05:40:11;;;;;;;60.97;32.35;;;;;;;9.97;100.00;94325.13;5047059;28;20061;-63
2022/03/31 05:42:40;;;;;;;55.13;30.95;;;;;;;9.99;100.00;94316.03;5048348;28;20072;-62
2022/03/31 05:45:12;;;;;;;56.97;31.58;;;;;;;9.92;100.00;94314.38;5048629;28;20084;-64
2022/03/31 05:47:42;;;;;;;53.88;30.85;;;;;;;10.69;100.00;94306.22;5048999;28;20087;-64
2022/03/31 05:50:11;;;;;;;59.92;31.90;;;;;;;10.60;100.00;94312.72;5048163;28;20080;-64
2022/03/31 05:52:42;;;;;;;54.35;30.45;;;;;;;10.58;100.00;94303.38;5048562;28;20519;-63
2022/03/31 05:55:12;;;;;;;56.00;31.73;;;;;;;10.72;100.00;94309.50;5048475;28;20068;-64
2022/03/31 05:57:41;;;;;;;55.72;29.83;;;;;;;10.59;100.00;94299.72;5048166;28;20072;-65
2022/03/31 06:00:11;;;;;;;52.88;28.83;;;;;;;10.84;100.00;94303.47;5048050;28;20084;-64
2022/03/31 06:02:40;;;;;;;51.58;29.50;;;;;;;10.95;100.00;94301.25;5049041;28;20084;-63
2022/03/31 06:05:19;;;;;;;50.55;29.83;;;;;;;10.91;100.00;94303.47;5047633;28;20053;-64
2022/03/31 06:07:51;;;;;;;50.35;28.77;;;;;;;10.74;100.00;94307.50;5048175;28;20092;-64
2022/03/31 06:10:20;;;;;;;56.50;30.48;;;;;;;10.50;100.00;94307.00;5045141;28;20061;-62
2022/03/31 06:12:48;;;;;;;49.60;27.40;;;;;;;10.54;100.00;94308.22;5042636;28;20070;-65
2022/03/31 06:15:17;;;;;;;51.22;28.25;;;;;;;10.55;100.00;94304.56;5041981;28;20076;-64
2022/03/31 06:17:46;;;;;;;49.75;29.48;;;;;;;10.68;100.00;94309.91;5052858;28;20379;-62
2022/03/31 06:20:14;;;;;;;56.40;30.83;;;;;;;10.85;100.00;94312.19;5047890;28;20064;-65
2022/03/31 06:22:42;;;;;;;55.95;30.70;;;;;;;10.75;100.00;94309.09;5048036;28;20061;-63
2022/03/31 06:25:14;;;;;;;54.03;29.67;;;;;;;10.72;100.00;94312.94;5048296;28;20065;-63
2022/03/31 06:27:45;;;;;;;54.55;29.98;;;;;;;11.00;100.00;94309.34;5047887;28;20061;-62
2022/03/31 06:30:14;;;;;;;50.00;29.08;;;;;;;11.15;100.00;94307.38;5047736;28;20076;-63
2022/03/31 06:32:42;;;;;;;55.78;30.58;;;;;;;11.00;100.00;94309.34;5048867;28;20081;-62
2022/03/31 06:35:14;;;;;;;53.17;30.02;;;;;;;10.58;100.00;94306.00;5043800;28;20065;-64
2022/03/31 06:37:44;;;;;;;54.45;30.42;;;;;;;10.90;100.00;94312.38;5042141;28;20533;-64
2022/03/31 06:40:14;;;;;;;55.17;31.60;;;;;;;10.98;100.00;94309.56;5047586;28;20061;-63
2022/03/31 06:42:44;;;;;;;55.03;31.52;;;;;;;11.29;100.00;94300.28;5048179;28;20107;-63
2022/03/31 06:45:15;;;;;;;58.83;32.97;;;;;;;11.24;100.00;94307.97;5047995;28;20077;-62
2022/03/31 06:48:00;;;;;;;58.63;32.75;;;;;;;11.14;100.00;94308.38;5048596;28;20531;-63
2022/03/31 06:50:30;;;;;;;;;;;;;;;10.96;100.00;94305.50;5047614;28;20429;-63
2022/03/31 06:52:59;;;;;;;55.15;31.17;;;;;;;11.17;100.00;94310.59;5047200;28;19967;-65
2022/03/31 06:55:29;;;;;;;56.83;31.75;;;;;;;11.52;100.00;94310.44;5047959;28;20456;-62
2022/03/31 06:57:58;;;;;;;55.17;31.05;;;;;;;11.38;100.00;94302.50;5038556;28;20064;-62
2022/03/31 07:00:27;;;;;;;56.25;31.80;;;;;;;11.05;100.00;94304.31;5048693;28;20443;-64
2022/03/31 07:02:55;;;;;;;55.50;32.05;;;;;;;11.39;100.00;94306.78;5052479;28;20059;-62
2022/03/31 07:05:24;;;;;;;56.50;32.88;;;;;;;11.22;100.00;94300.28;5050865;28;20235;-62
2022/03/31 07:07:52;;;;;;;60.80;34.28;;;;;;;10.82;100.00;94308.09;5051726;28;20064;-63
2022/03/31 07:10:21;;;;;;;59.55;34.40;;;;;;;11.58;100.00;94305.16;5051105;28;20065;-64
2022/03/31 07:12:51;;;;;;;56.38;34.00;;;;;;;11.42;100.00;94302.91;5051408;28;20068;-61
2022/03/31 07:15:20;;;;;;;61.20;34.85;;;;;;;11.00;100.00;94299.63;5051343;28;20095;-64
2022/03/31 07:17:48;;;;;;;60.17;34.30;;;;;;;11.13;100.00;94301.47;5056260;28;20119;-62
2022/03/31 07:20:17;;;;;;;59.67;34.35;;;;;;;11.76;100.00;94287.88;5050788;28;20060;-62
2022/03/31 07:22:46;;;;;;;59.00;32.40;;;;;;;11.94;100.00;94277.53;5051279;28;20543;-64
2022/03/31 07:25:16;;;;;;;57.10;31.30;;;;;;;11.89;100.00;94269.41;5050773;28;20730;-62
2022/03/31 07:27:45;;;;;;;55.17;30.92;;;;;;;11.67;100.00;94273.28;5049018;28;20538;-65
2022/03/31 07:30:16;;;;;;;53.50;30.63;;;;;;;11.70;100.00;94273.69;5050790;28;20460;-62
2022/03/31 07:32:48;;;;;;;56.53;32.40;;;;;;;12.06;100.00;94269.78;5050579;28;20077;-64
2022/03/31 07:35:17;;;;;;;55.25;31.83;;;;;;;12.08;100.00;94270.38;5047655;28;20083;-63
2022/03/31 07:37:45;;;;;;;54.15;31.23;;;;;;;12.35;100.00;94266.63;5050801;28;20041;-63
2022/03/31 07:40:14;;;;;;;53.13;30.27;;;;;;;12.30;100.00;94268.28;5050876;28;20060;-63
2022/03/31 07:42:43;;;;;;;53.38;30.05;;;;;;;12.45;100.00;94268.81;5050927;28;20061;-63
2022/03/31 07:45:12;;;;;;;54.35;30.90;;;;;;;12.93;100.00;94259.63;5050879;28;20085;-62
2022/03/31 07:47:43;;;;;;;57.53;33.58;;;;;;;12.68;100.00;94270.13;5051275;28;20081;-63
2022/03/31 07:50:11;;;;;;;;;;;;;;;12.66;100.00;94265.03;5051111;28;20064;-63
2022/03/31 07:52:40;;;;;;;53.45;31.23;;;;;;;12.93;100.00;94268.34;5050499;28;19952;-62
2022/03/31 07:55:10;;;;;;;52.70;31.08;;;;;;;12.75;100.00;94263.78;5050548;28;20107;-63
2022/03/31 07:57:39;;;;;;;54.72;32.38;;;;;;;12.69;100.00;94261.19;5050619;28;20065;-62
2022/03/31 08:00:11;;;;;;;57.50;32.53;;;;;;;12.68;100.00;94256.91;5050339;28;20479;-64
2022/03/31 08:02:41;;;;;;;55.78;33.38;;;;;;;12.14;100.00;94268.72;5050815;28;20072;-61
2022/03/31 08:05:11;;;;;;;63.38;35.85;;;;;;;11.95;100.00;94267.78;5050324;28;20075;-65
2022/03/31 08:07:39;;;;;;;56.00;33.15;;;;;;;12.15;100.00;94265.06;5050546;28;20068;-63
2022/03/31 08:10:09;;;;;;;68.10;37.53;;;;;;;11.53;100.00;94272.47;5050042;28;20064;-65
2022/03/31 08:12:39;;;;;;;56.92;32.95;;;;;;;11.90;100.00;94262.28;5043440;28;20593;-65
2022/03/31 08:15:09;;;;;;;59.63;34.95;;;;;;;12.26;100.00;94267.06;5050368;28;20091;-63
2022/03/31 08:17:38;;;;;;;50.88;29.75;;;;;;;12.27;100.00;94258.13;5054324;28;20092;-63
2022/03/31 08:20:10;;;;;;;48.97;30.08;;;;;;;12.03;100.00;94256.97;5049806;28;20525;-63
2022/03/31 08:22:39;;;;;;;48.17;28.90;;;;;;;12.67;100.00;94255.31;5046409;28;20523;-62
2022/03/31 08:25:08;;;;;;;48.05;28.25;;;;;;;13.15;100.00;94244.22;5050111;28;20095;-64
2022/03/31 08:27:37;;;;;;;45.78;26.65;;;;;;;13.11;100.00;94243.00;5049733;28;20505;-63
2022/03/31 08:30:07;;;;;;;43.58;26.45;;;;;;;13.38;100.00;94247.09;5049281;28;20084;-63
2022/03/31 08:32:38;;;;;;;42.72;25.60;;;;;;;13.32;100.00;94245.34;5050408;28;20091;-64
2022/03/31 08:35:09;;;;;;;38.42;23.55;;;;;;;13.46;100.00;94246.84;5050129;28;20076;-62
2022/03/31 08:37:38;;;;;;;33.60;21.70;;;;;;;13.47;100.00;94245.81;5049889;28;20075;-63
2022/03/31 08:40:10;;;;;;;34.88;22.08;;;;;;;13.64;100.00;94239.97;5049875;28;20068;-64
2022/03/31 08:42:39;;;;;;;40.08;24.27;;;;;;;13.43;100.00;94244.63;5049921;28;20069;-62
2022/03/31 08:45:12;;;;;;;39.65;24.60;;;;;;;13.69;100.00;94237.47;5050043;28;20087;-63
2022/03/31 08:47:41;;;;;;;41.13;26.60;;;;;;;13.16;100.00;94248.47;5049500;28;20099;-64
2022/03/31 08:50:21;;;;;;;43.88;27.25;;;;;;;13.27;100.00;94248.63;5049039;28;20057;-65
2022/03/31 08:52:50;;;;;;;39.45;26.58;;;;;;;12.75;100.00;94253.22;5049346;28;20069;-63
2022/03/31 08:55:19;;;;;;;39.72;25.73;;;;;;;13.37;100.00;94253.44;5043308;28;20064;-65
2022/03/31 08:57:48;;;;;;;44.67;27.90;;;;;;;12.08;100.00;94257.97;5049497;28;20079;-63
2022/03/31 09:00:20;;;;;;;44.90;26.42;;;;;;;12.85;100.00;94252.75;5049141;28;20287;-64
2022/03/31 09:02:56;;;;;;;37.05;23.75;;;;;;;12.71;100.00;94261.78;5050185;28;20064;-62
2022/03/31 09:05:27;;;;;;;38.72;24.70;;;;;;;12.91;100.00;94248.44;5046475;28;20475;-63
2022/03/31 09:07:57;;;;;;;35.47;22.63;;;;;;;12.48;100.00;94247.25;5049228;28;20488;-63
2022/03/31 09:10:27;;;;;;;;;;;;;;;13.13;100.00;94241.78;5048542;28;20071;-63
2022/03/31 09:12:55;;;;;;;31.75;20.50;;;;;;;12.30;100.00;94239.19;5047954;28;20178;-63
2022/03/31 09:15:31;;;;;;;31.05;20.00;;;;;;;13.21;100.00;94238.03;5048169;28;20151;-65
2022/03/31 09:18:00;;;;;;;35.75;20.42;;;;;;;13.07;100.00;94240.81;5049252;28;20087;-63
2022/03/31 09:20:48;;;;;;;34.55;21.08;;;;;;;13.14;100.00;94240.75;5049338;28;20077;-64
2022/03/31 09:23:17;;;;;;;30.35;20.50;;;;;;;12.93;100.00;94238.44;5048224;28;20065;-65
2022/03/31 09:25:46;;;;;;;31.45;20.95;;;;;;;12.69;100.00;94240.03;5048416;28;20091;-65
2022/03/31 09:28:16;;;;;;;31.17;20.17;;;;;;;12.24;100.00;94245.31;5048721;28;20056;-63
2022/03/31 09:30:46;;;;;;;38.40;21.30;;;;;;;12.52;100.00;94243.16;5048836;28;20067;-63
2022/03/31 09:33:26;;;;;;;30.37;20.33;;;;;;;13.29;100.00;94236.00;5044447;28;20081;-64
2022/03/31 09:36:04;;;;;;;31.45;21.65;;;;;;;12.98;100.00;94241.28;5046445;28;20503;-63
2022/03/31 09:38:35;;;;;;;33.83;21.38;;;;;;;12.77;100.00;94235.31;5048068;28;20421;-65
2022/03/31 09:41:16;;;;;;;31.17;20.75;;;;;;;13.03;100.00;94236.16;5048442;28;20472;-62
2022/03/31 09:43:44;;;;;;;30.47;19.50;;;;;;;13.60;100.00;94226.34;5042786;28;20091;-63
2022/03/31 09:46:23;;;;;;;30.40;19.42;;;;;;;13.76;100.00;94232.91;5049065;28;20479;-63
2022/03/31 09:49:00;;;;;;;28.70;18.25;;;;;;;13.64;100.00;94232.84;5048690;28;20052;-63
2022/03/31 09:51:30;;;;;;;28.80;19.20;;;;;;;14.20;100.00;94226.53;5048186;28;20518;-63
2022/03/31 09:53:58;;;;;;;29.57;19.67;;;;;;;13.90;100.00;94231.78;5049328;28;20530;-63
2022/03/31 09:56:26;;;;;;;27.02;18.30;;;;;;;14.46;100.00;94228.06;5048292;28;20353;-63
2022/03/31 09:59:00;;;;;;;31.20;19.48;;;;;;;14.27;100.00;94231.75;5048609;28;20394;-61
2022/03/31 10:01:29;;;;;;;28.10;18.70;;;;;;;14.61;100.00;94234.84;5047898;28;20111;-62
2022/03/31 10:03:58;;;;;;;31.02;19.65;;;;;;;14.00;100.00;94233.88;5048371;28;20080;-63
2022/03/31 10:06:27;;;;;;;28.80;19.55;;;;;;;14.27;100.00;94234.41;5048463;28;20083;-64
2022/03/31 10:08:57;;;;;;;28.73;18.95;;;;;;;15.23;100.00;94230.06;5048806;28;20115;-63
2022/03/31 10:11:28;;;;;;;31.33;18.83;;;;;;;13.87;100.00;94232.22;5047713;28;20554;-64
2022/03/31 10:13:58;;;;;;;;;;;;;;;14.80;100.00;94228.47;5048768;28;20083;-64
2022/03/31 10:16:35;;;;;;;28.33;18.88;;;;;;;14.04;100.00;94232.44;5050995;28;20007;-64
2022/03/31 10:19:04;;;;;;;27.75;17.48;;;;;;;13.71;100.00;94224.81;5042502;28;20432;-62
2022/03/31 10:21:32;;;;;;;29.10;19.08;;;;;;;13.89;100.00;94222.19;5048106;28;20071;-63
2022/03/31 10:26:58;;;;;;;27.77;17.92;;;;;;;13.92;100.00;94223.59;5045731;28;20088;-64
2022/03/31 10:29:38;;;;;;;26.13;17.67;;;;;;;13.71;100.00;94219.53;5047477;28;20550;-63
2022/03/31 10:32:22;;;;;;;27.48;18.02;;;;;;;13.62;100.00;94211.03;5043394;28;20065;-64
2022/03/31 10:34:51;;;;;;;29.00;17.58;;;;;;;13.94;100.00;94211.75;5044879;28;20463;-65
2022/03/31 10:37:32;;;;;;;28.88;17.38;;;;;;;14.65;100.00;94210.28;5052047;28;20530;-65
2022/03/31 10:40:03;;;;;;;;;;;;;;;15.08;100.00;94203.97;5052155;28;20103;-65
2022/03/31 10:42:31;;;;;;;24.38;15.88;;;;;;;15.32;100.00;94211.97;5052172;28;19956;-65
2022/03/31 10:45:09;;;;;;;26.55;17.05;;;;;;;15.10;100.00;94203.72;5052129;28;20088;-63
2022/03/31 10:47:39;;;;;;;26.45;16.95;;;;;;;15.14;100.00;94200.41;5052381;28;20099;-64
2022/03/31 10:50:08;;;;;;;27.20;16.95;;;;;;;14.34;100.00;94192.72;5051451;28;20088;-64
2022/03/31 10:52:37;;;;;;;29.38;17.63;;;;;;;13.93;100.00;94196.88;5051456;28;20064;-65
2022/03/31 10:55:09;;;;;;;25.40;16.95;;;;;;;14.06;100.00;94195.09;5051737;28;20511;-64
2022/03/31 10:57:40;;;;;;;25.67;17.00;;;;;;;13.98;100.00;94191.72;5045568;28;20091;-64
2022/03/31 11:00:10;;;;;;;27.23;18.10;;;;;;;13.70;100.00;94189.59;5051115;28;20095;-62
2022/03/31 11:02:42;;;;;;;27.70;18.33;;;;;;;14.12;100.00;94188.94;5052633;28;20090;-62
2022/03/31 11:05:32;;;;;;;27.40;17.85;;;;;;;13.82;100.00;94187.00;5049694;28;20384;-63
2022/03/31 11:08:04;;;;;;;27.42;16.65;;;;;;;13.67;100.00;94190.03;5051367;28;20076;-64
2022/03/31 11:10:42;;;;;;;25.67;16.33;;;;;;;13.62;100.00;94181.09;5050863;28;20095;-63
2022/03/31 11:13:11;;;;;;;26.48;17.38;;;;;;;13.26;100.00;94180.84;5047711;28;20072;-63
2022/03/31 11:15:40;;;;;;;25.67;16.92;;;;;;;13.45;100.00;94175.56;5052554;28;20510;-63
2022/03/31 11:18:09;;;;;;;27.70;17.27;;;;;;;13.62;100.00;94171.31;5044436;28;20084;-62
2022/03/31 11:20:37;;;;;;;29.30;17.70;;;;;;;13.51;100.00;94169.41;5051546;28;20091;-62
2022/03/31 11:23:06;;;;;;;31.92;18.30;;;;;;;13.33;100.00;94166.75;5051300;28;20065;-63
2022/03/31 11:25:36;;;;;;;28.45;18.58;;;;;;;13.00;100.00;94170.44;5051209;28;20474;-63
2022/03/31 11:28:10;;;;;;;30.83;19.00;;;;;;;12.19;100.00;94176.47;5051012;28;20571;-64
2022/03/31 11:30:39;;;;;;;32.00;18.52;;;;;;;12.77;100.00;94177.13;5050959;28;20091;-62